createdAt,value
2019-04-12T00:01:56.876Z,3.20
2019-04-12T00:04:26.341Z,3.20
2019-04-12T00:06:57.054Z,3.10
2019-04-12T00:09:28.532Z,3.10
2019-04-12T00:11:57.608Z,3.10
2019-04-12T00:14:27.151Z,3.00
2019-04-12T00:16:57.862Z,3.00
2019-04-12T00:19:27.339Z,3.00
2019-04-12T00:21:56.780Z,2.90
2019-04-12T00:24:34.689Z,3.00
2019-04-12T00:26:59.933Z,2.90
2019-04-12T00:29:29.347Z,2.80
2019-04-12T00:31:58.793Z,2.80
2019-04-12T00:34:28.270Z,2.80
2019-04-12T00:36:58.987Z,2.80
2019-04-12T00:39:30.450Z,2.80
2019-04-12T00:42:02.776Z,2.80
2019-04-12T00:44:33.804Z,2.80
2019-04-12T00:47:09.028Z,2.80
2019-04-12T00:49:37.946Z,2.70
2019-04-12T00:52:06.819Z,2.60
2019-04-12T00:54:45.763Z,2.60
2019-04-12T00:57:08.622Z,2.70
2019-04-12T00:59:38.105Z,2.70
2019-04-12T01:02:12.160Z,2.50
2019-04-12T01:04:44.154Z,2.40
2019-04-12T01:07:14.410Z,2.40
2019-04-12T01:09:43.886Z,2.40
2019-04-12T01:12:13.412Z,2.40
2019-04-12T01:14:42.813Z,2.50
2019-04-12T01:17:13.527Z,2.40
2019-04-12T01:19:43.010Z,2.50
2019-04-12T01:22:13.718Z,2.40
2019-04-12T01:24:43.227Z,2.40
2019-04-12T01:27:16.593Z,2.40
2019-04-12T01:29:47.658Z,2.40
2019-04-12T01:32:14.796Z,2.40
2019-04-12T01:34:45.411Z,2.30
2019-04-12T01:37:14.887Z,2.30
2019-04-12T01:39:44.390Z,2.20
2019-04-12T01:42:13.862Z,2.20
2019-04-12T01:44:43.301Z,2.20
2019-04-12T01:47:12.714Z,2.20
2019-04-12T01:49:42.222Z,2.10
2019-04-12T01:52:12.905Z,2.00
2019-04-12T01:54:42.350Z,2.10
2019-04-12T01:57:13.028Z,2.10
2019-04-12T01:59:42.475Z,2.10
2019-04-12T02:02:11.949Z,2.10
2019-04-12T02:04:41.460Z,2.00
2019-04-12T02:07:10.944Z,1.90
2019-04-12T02:09:40.386Z,1.80
2019-04-12T02:12:11.166Z,1.80
2019-04-12T02:14:40.676Z,1.70
2019-04-12T02:17:11.350Z,1.70
2019-04-12T02:19:40.878Z,1.80
2019-04-12T02:22:10.365Z,1.80
2019-04-12T02:24:39.874Z,1.70
2019-04-12T02:27:09.348Z,1.70
2019-04-12T02:29:38.801Z,1.70
2019-04-12T02:32:11.120Z,1.70
2019-04-12T02:34:40.801Z,1.80
2019-04-12T02:37:11.482Z,1.60
2019-04-12T02:39:41.125Z,1.70
2019-04-12T02:42:12.647Z,1.60
2019-04-12T02:44:42.154Z,1.70
2019-04-12T02:47:14.643Z,1.70
2019-04-12T02:49:48.526Z,1.60
2019-04-12T02:52:25.232Z,1.60
2019-04-12T02:54:56.380Z,1.50
2019-04-12T02:57:43.485Z,1.60
2019-04-12T03:00:14.565Z,1.60
2019-04-12T03:02:45.239Z,1.60
2019-04-12T03:05:14.678Z,1.70
2019-04-12T03:07:45.368Z,1.60
2019-04-12T03:10:14.875Z,1.60
2019-04-12T03:12:45.558Z,1.50
2019-04-12T03:15:15.015Z,1.40
2019-04-12T03:17:46.008Z,1.40
2019-04-12T03:20:15.448Z,1.30
2019-04-12T03:22:46.128Z,1.30
2019-04-12T03:25:15.564Z,1.30
2019-04-12T03:27:46.262Z,1.30
2019-04-12T03:30:15.701Z,1.30
2019-04-12T03:32:46.386Z,1.30
2019-04-12T03:35:15.808Z,1.30
2019-04-12T03:37:46.495Z,1.20
2019-04-12T03:40:15.940Z,1.20
2019-04-12T03:42:47.161Z,1.20
2019-04-12T03:45:16.600Z,1.30
2019-04-12T03:47:47.293Z,1.20
2019-04-12T03:50:16.903Z,1.10
2019-04-12T03:52:47.589Z,1.10
2019-04-12T03:55:17.034Z,0.90
2019-04-12T03:57:47.709Z,1.00
2019-04-12T04:00:18.810Z,1.10
2019-04-12T04:02:49.485Z,1.10
2019-04-12T04:05:18.933Z,1.10
2019-04-12T04:07:49.614Z,1.20
2019-04-12T04:10:19.054Z,1.20
2019-04-12T04:12:49.773Z,1.20
2019-04-12T04:15:19.338Z,1.10
2019-04-12T04:17:51.693Z,1.10
2019-04-12T04:20:39.119Z,1.10
2019-04-12T04:23:12.770Z,1.10
2019-04-12T04:25:59.784Z,1.10
2019-04-12T04:28:47.453Z,1.10
2019-04-12T04:31:33.642Z,1.10
2019-04-12T04:34:03.117Z,1.10
2019-04-12T04:36:33.902Z,1.10
2019-04-12T04:39:05.082Z,1.10
2019-04-12T04:41:35.395Z,1.20
2019-04-12T04:44:04.942Z,1.20
2019-04-12T04:46:34.635Z,1.30
2019-04-12T04:49:04.050Z,1.30
2019-04-12T04:51:33.502Z,1.40
2019-04-12T04:54:02.911Z,1.40
2019-04-12T04:56:34.345Z,1.40
2019-04-12T04:59:03.873Z,1.40
2019-04-12T05:01:34.654Z,1.40
2019-04-12T05:04:04.099Z,1.50
2019-04-12T05:06:33.506Z,1.50
2019-04-12T05:09:02.955Z,1.50
2019-04-12T05:11:34.139Z,1.60
2019-04-12T05:14:03.586Z,1.70
2019-04-12T05:16:33.032Z,1.70
2019-04-12T05:19:02.476Z,1.60
2019-04-12T05:21:32.031Z,1.70
2019-04-12T05:24:01.741Z,1.70
2019-04-12T05:26:32.623Z,1.80
2019-04-12T05:29:03.066Z,1.90
2019-04-12T05:31:33.762Z,1.80
2019-04-12T05:34:03.476Z,1.80
2019-04-12T05:36:34.154Z,1.80
2019-04-12T05:39:05.316Z,1.80
2019-04-12T05:41:35.898Z,1.90
2019-04-12T05:44:06.978Z,2.00
2019-04-12T05:46:57.208Z,2.10
2019-04-12T05:49:40.076Z,2.10
2019-04-12T05:52:09.490Z,2.20
2019-04-12T05:54:38.935Z,2.30
2019-04-12T05:57:08.619Z,2.40
2019-04-12T05:59:39.505Z,2.50
2019-04-12T06:02:17.408Z,2.50
2019-04-12T06:04:46.873Z,2.50
2019-04-12T06:07:17.554Z,2.40
2019-04-12T06:09:47.062Z,2.40
2019-04-12T06:12:16.544Z,2.50
2019-04-12T06:14:46.428Z,2.60
2019-04-12T06:17:17.449Z,2.50
2019-04-12T06:19:47.562Z,2.60
2019-04-12T06:22:21.866Z,2.80
2019-04-12T06:25:01.829Z,3.00
2019-04-12T06:27:34.355Z,3.10
2019-04-12T06:30:05.503Z,3.00
2019-04-12T06:32:36.291Z,3.10
2019-04-12T06:35:05.732Z,3.20
2019-04-12T06:37:36.407Z,3.40
2019-04-12T06:40:07.090Z,3.60
2019-04-12T06:42:37.767Z,3.60
2019-04-12T06:45:07.208Z,3.70
2019-04-12T06:47:37.886Z,3.80
2019-04-12T06:50:08.975Z,3.90
2019-04-12T06:52:39.668Z,4.00
2019-04-12T06:55:10.759Z,4.00
2019-04-12T06:57:41.438Z,4.20
2019-04-12T07:00:28.557Z,4.20
2019-04-12T07:03:05.722Z,4.20
2019-04-12T07:05:36.702Z,4.20
2019-04-12T07:08:06.249Z,3.90
2019-04-12T07:10:35.794Z,3.90
2019-04-12T07:13:05.281Z,4.10
2019-04-12T07:15:35.167Z,4.40
2019-04-12T07:18:04.644Z,4.60
2019-04-12T07:20:34.159Z,4.70
2019-04-12T07:23:03.574Z,4.90
2019-04-12T07:25:33.094Z,5.30
2019-04-12T07:28:02.546Z,5.50
2019-04-12T07:30:32.031Z,5.70
2019-04-12T07:33:01.553Z,5.40
2019-04-12T07:35:31.271Z,5.40
2019-04-12T07:38:02.587Z,5.70
2019-04-12T07:40:33.438Z,5.60
2019-04-12T07:43:02.979Z,5.60
2019-04-12T07:45:32.451Z,6.20
2019-04-12T07:48:01.971Z,6.90
2019-04-12T07:50:35.996Z,7.70
2019-04-12T07:53:05.702Z,7.60
2019-04-12T07:55:54.631Z,8.80
2019-04-12T07:58:28.540Z,9.80
2019-04-12T08:01:03.739Z,9.80
2019-04-12T08:03:34.962Z,10.20
2019-04-12T08:06:07.520Z,10.70
2019-04-12T08:08:37.367Z,10.40
2019-04-12T08:11:08.065Z,10.60
2019-04-12T08:13:37.508Z,10.70
2019-04-12T08:16:08.388Z,10.80
2019-04-12T08:18:37.839Z,10.50
2019-04-12T08:21:08.519Z,10.20
2019-04-12T08:23:38.035Z,9.00
2019-04-12T08:26:08.977Z,9.70
2019-04-12T08:28:38.442Z,11.00
2019-04-12T08:31:07.859Z,11.30
2019-04-12T08:33:37.391Z,11.60
2019-04-12T08:36:08.070Z,12.00
2019-04-12T08:38:37.595Z,13.20
2019-04-12T08:41:10.483Z,12.40
2019-04-12T08:43:42.023Z,10.90
2019-04-12T08:46:12.747Z,9.90
2019-04-12T08:48:42.279Z,10.80
2019-04-12T08:51:22.112Z,11.00
2019-04-12T08:53:44.286Z,12.40
2019-04-12T08:56:14.947Z,12.50
2019-04-12T08:58:44.466Z,11.50
2019-04-12T09:01:13.947Z,11.00
2019-04-12T09:03:43.526Z,11.30
2019-04-12T09:06:15.086Z,12.10
2019-04-12T09:08:49.226Z,12.90
2019-04-12T09:11:18.705Z,11.10
2019-04-12T09:13:48.395Z,11.70
2019-04-12T09:16:19.829Z,13.00
2019-04-12T09:18:53.656Z,14.20
2019-04-12T09:21:26.118Z,14.20
2019-04-12T09:23:57.300Z,14.80
2019-04-12T09:26:26.744Z,16.20
2019-04-12T09:28:56.259Z,15.50
2019-04-12T09:31:25.880Z,15.50
2019-04-12T09:33:55.355Z,15.40
2019-04-12T09:36:24.786Z,15.40
2019-04-12T09:38:54.306Z,14.80
2019-04-12T09:41:23.865Z,14.70
2019-04-12T09:43:53.391Z,13.90
2019-04-12T09:46:22.871Z,13.70
2019-04-12T09:48:52.294Z,13.30
2019-04-12T09:51:21.814Z,12.60
2019-04-12T09:53:51.224Z,12.30
2019-04-12T09:56:21.943Z,12.30
2019-04-12T09:58:51.437Z,12.20
2019-04-12T10:01:22.147Z,13.10
2019-04-12T10:03:51.569Z,13.90
2019-04-12T10:06:22.291Z,14.00
2019-04-12T10:08:51.697Z,14.20
2019-04-12T10:11:21.214Z,13.40
2019-04-12T10:13:50.622Z,13.40
2019-04-12T10:16:20.069Z,13.60
2019-04-12T10:18:49.545Z,13.90
2019-04-12T10:21:18.993Z,15.40
2019-04-12T10:23:48.480Z,14.40
2019-04-12T10:26:19.190Z,14.50
2019-04-12T10:28:50.570Z,15.30
2019-04-12T10:31:21.012Z,16.50
2019-04-12T10:33:50.433Z,16.30
2019-04-12T10:36:21.148Z,17.00
2019-04-12T10:39:01.192Z,17.10
2019-04-12T10:41:32.178Z,16.20
2019-04-12T10:44:21.482Z,16.40
2019-04-12T10:47:02.368Z,16.80
2019-04-12T10:49:47.352Z,17.00
2019-04-12T10:52:28.399Z,16.20
2019-04-12T10:55:02.402Z,15.00
2019-04-12T10:57:33.186Z,14.30
2019-04-12T11:00:02.807Z,13.00
2019-04-12T11:02:33.627Z,13.00
2019-04-12T11:05:03.456Z,14.70
2019-04-12T11:07:34.143Z,15.90
2019-04-12T11:10:05.342Z,16.10
2019-04-12T11:12:36.025Z,13.90
2019-04-12T11:15:05.469Z,14.30
2019-04-12T11:17:36.487Z,14.60
2019-04-12T11:20:06.046Z,15.50
2019-04-12T11:22:36.858Z,14.10
2019-04-12T11:25:06.505Z,13.30
2019-04-12T11:27:37.224Z,12.80
2019-04-12T11:30:07.203Z,11.80
2019-04-12T11:32:37.924Z,11.40
2019-04-12T11:35:10.142Z,11.20
2019-04-12T11:37:39.743Z,11.20
2019-04-12T11:40:09.223Z,11.20
2019-04-12T11:42:40.047Z,11.00
2019-04-12T11:45:09.535Z,11.00
2019-04-12T11:47:40.359Z,10.80
2019-04-12T11:50:09.841Z,10.80
2019-04-12T11:52:40.557Z,10.70
2019-04-12T11:55:10.044Z,10.70
2019-04-12T11:57:40.774Z,10.70
2019-04-12T12:00:12.287Z,10.90
2019-04-12T12:02:50.722Z,10.90
2019-04-12T12:05:21.850Z,10.80
2019-04-12T12:08:09.677Z,10.70
2019-04-12T12:10:46.780Z,10.80
2019-04-12T12:13:23.643Z,10.70
2019-04-12T12:15:58.803Z,10.50
2019-04-12T12:18:35.662Z,10.60
2019-04-12T12:21:05.326Z,10.20
2019-04-12T12:23:34.925Z,10.40
2019-04-12T12:26:04.451Z,10.40
2019-04-12T12:28:34.189Z,10.50
2019-04-12T12:31:04.886Z,10.50
2019-04-12T12:33:34.466Z,10.50
2019-04-12T12:36:05.201Z,10.60
2019-04-12T12:38:34.925Z,10.50
2019-04-12T12:41:05.619Z,10.50
2019-04-12T12:43:35.138Z,10.50
2019-04-12T12:46:05.830Z,10.70
2019-04-12T12:48:35.347Z,10.60
2019-04-12T12:51:04.860Z,10.60
2019-04-12T12:53:34.388Z,10.70
2019-04-12T12:56:05.501Z,10.80
2019-04-12T12:58:35.019Z,10.60
2019-04-12T13:01:04.513Z,10.60
2019-04-12T13:03:34.035Z,10.60
2019-04-12T13:06:04.737Z,10.40
2019-04-12T13:08:34.252Z,10.60
2019-04-12T13:11:04.099Z,10.50
2019-04-12T13:13:33.553Z,10.30
2019-04-12T13:16:04.247Z,10.30
2019-04-12T13:18:33.805Z,10.50
2019-04-12T13:21:04.638Z,10.50
2019-04-12T13:23:34.104Z,10.10
2019-04-12T13:26:05.161Z,10.40
2019-04-12T13:28:36.950Z,10.00
2019-04-12T13:31:22.792Z,9.80
2019-04-12T13:33:53.947Z,9.80
2019-04-12T13:36:29.104Z,10.00
2019-04-12T13:39:03.247Z,9.70
2019-04-12T13:41:33.728Z,9.80
2019-04-12T13:44:03.173Z,9.90
2019-04-12T13:46:34.123Z,9.70
2019-04-12T13:49:03.641Z,9.60
2019-04-12T13:51:33.067Z,9.90
2019-04-12T13:54:02.595Z,10.20
2019-04-12T13:56:32.085Z,10.40
2019-04-12T13:59:01.594Z,10.50
2019-04-12T14:01:31.154Z,10.70
2019-04-12T14:04:00.685Z,10.90
2019-04-12T14:06:30.179Z,10.60
2019-04-12T14:08:59.707Z,10.50
2019-04-12T14:11:29.195Z,10.30
2019-04-12T14:13:58.699Z,10.40
2019-04-12T14:16:29.517Z,10.10
2019-04-12T14:18:58.947Z,10.30
2019-04-12T14:21:28.469Z,10.20
2019-04-12T14:23:57.891Z,10.00
2019-04-12T14:26:28.610Z,9.90
2019-04-12T14:28:58.031Z,10.00
2019-04-12T14:31:30.499Z,10.10
2019-04-12T14:34:07.401Z,10.00
2019-04-12T14:36:42.724Z,9.70
2019-04-12T14:39:13.788Z,9.80
2019-04-12T14:41:44.108Z,9.80
2019-04-12T14:44:24.306Z,9.90
2019-04-12T14:46:55.387Z,9.90
2019-04-12T14:49:24.952Z,10.00
2019-04-12T14:51:57.280Z,10.00
2019-04-12T14:54:25.571Z,10.00
2019-04-12T14:56:56.632Z,9.90
2019-04-12T14:59:26.112Z,9.70
2019-04-12T15:01:57.109Z,9.20
2019-04-12T15:04:26.540Z,9.10
2019-04-12T15:06:57.451Z,9.10
2019-04-12T15:09:26.865Z,9.20
2019-04-12T15:11:56.405Z,9.20
2019-04-12T15:14:25.821Z,9.30
2019-04-12T15:16:55.889Z,9.20
2019-04-12T15:19:25.300Z,9.30
2019-04-12T15:21:54.813Z,9.30
2019-04-12T15:24:24.258Z,9.30
2019-04-12T15:26:53.773Z,9.20
2019-04-12T15:29:23.193Z,9.20
2019-04-12T15:31:53.903Z,9.20
2019-04-12T15:34:23.319Z,9.20
2019-04-12T15:36:54.130Z,9.00
2019-04-12T15:39:23.550Z,9.10
2019-04-12T15:41:53.071Z,9.10
2019-04-12T15:44:22.490Z,9.00
2019-04-12T15:46:51.938Z,9.00
2019-04-12T15:49:21.362Z,8.70
2019-04-12T15:51:52.074Z,8.90
2019-04-12T15:54:21.495Z,8.70
2019-04-12T15:56:51.068Z,8.90
2019-04-12T15:59:20.483Z,8.90
2019-04-12T16:01:50.072Z,8.90
2019-04-12T16:04:19.496Z,9.00
2019-04-12T16:06:50.315Z,9.00
2019-04-12T16:09:25.534Z,8.80
2019-04-12T16:12:02.207Z,8.70
2019-04-12T16:14:31.825Z,8.80
2019-04-12T16:17:22.257Z,8.80
2019-04-12T16:19:51.979Z,8.60
2019-04-12T16:22:21.847Z,8.60
2019-04-12T16:24:51.272Z,8.50
2019-04-12T16:27:20.730Z,8.50
2019-04-12T16:29:54.819Z,8.40
2019-04-12T16:32:42.484Z,8.40
2019-04-12T16:35:25.805Z,8.40
2019-04-12T16:37:59.763Z,8.30
2019-04-12T16:40:30.671Z,8.20
2019-04-12T16:43:00.179Z,8.10
2019-04-12T16:45:31.335Z,8.00
2019-04-12T16:48:00.905Z,8.00
2019-04-12T16:50:30.389Z,7.90
2019-04-12T16:53:00.012Z,7.90
2019-04-12T16:55:30.987Z,8.00
2019-04-12T16:58:00.523Z,8.00
2019-04-12T17:00:40.418Z,8.00
2019-04-12T17:03:09.940Z,7.80
2019-04-12T17:05:40.654Z,7.70
2019-04-12T17:08:10.148Z,7.60
2019-04-12T17:10:40.979Z,7.60
2019-04-12T17:13:11.883Z,7.60
2019-04-12T17:15:41.510Z,7.60
2019-04-12T17:18:10.927Z,7.50
2019-04-12T17:20:41.746Z,7.50
2019-04-12T17:23:11.259Z,7.50
2019-04-12T17:25:41.989Z,7.60
2019-04-12T17:28:11.397Z,7.30
2019-04-12T17:30:40.904Z,7.20
2019-04-12T17:33:10.387Z,7.10
2019-04-12T17:35:39.904Z,6.90
2019-04-12T17:38:09.383Z,6.90
2019-04-12T17:40:38.910Z,6.90
2019-04-12T17:43:08.319Z,7.00
2019-04-12T17:45:38.052Z,7.00
2019-04-12T17:48:09.070Z,7.00
2019-04-12T17:50:41.431Z,7.00
2019-04-12T17:53:21.428Z,6.90
2019-04-12T17:55:52.593Z,7.00
2019-04-12T17:58:22.003Z,7.10
2019-04-12T18:00:53.151Z,7.00
2019-04-12T18:03:22.634Z,6.90
2019-04-12T18:05:52.153Z,6.90
2019-04-12T18:08:21.583Z,6.90
2019-04-12T18:10:51.100Z,6.90
2019-04-12T18:13:20.616Z,6.80
2019-04-12T18:15:51.332Z,6.60
2019-04-12T18:18:21.680Z,6.70
2019-04-12T18:20:52.387Z,6.70
2019-04-12T18:23:21.958Z,6.60
2019-04-12T18:25:51.471Z,6.50
2019-04-12T18:28:20.957Z,6.50
2019-04-12T18:30:51.667Z,6.50
2019-04-12T18:33:21.167Z,6.50
2019-04-12T18:35:51.876Z,6.40
2019-04-12T18:38:21.363Z,6.50
2019-04-12T18:40:52.276Z,6.40
2019-04-12T18:43:21.763Z,6.50
2019-04-12T18:45:52.470Z,6.50
2019-04-12T18:48:21.964Z,6.50
2019-04-12T18:50:52.777Z,6.40
2019-04-12T18:53:22.259Z,6.50
2019-04-12T18:55:52.981Z,6.40
2019-04-12T18:58:22.464Z,6.40
2019-04-12T19:00:53.174Z,6.40
2019-04-12T19:03:22.671Z,6.30
2019-04-12T19:05:52.175Z,6.30
2019-04-12T19:08:21.659Z,6.30
2019-04-12T19:10:52.371Z,6.30
2019-04-12T19:13:21.779Z,6.30
2019-04-12T19:15:51.376Z,6.30
2019-04-12T19:18:20.857Z,6.40
2019-04-12T19:20:50.539Z,6.40
2019-04-12T19:23:19.933Z,6.40
2019-04-12T19:25:50.758Z,6.40
2019-04-12T19:28:20.251Z,6.40
2019-04-12T19:30:54.436Z,6.40
2019-04-12T19:33:25.484Z,6.40
2019-04-12T19:36:01.313Z,6.30
2019-04-12T19:38:33.270Z,6.40
2019-04-12T19:41:04.236Z,6.40
2019-04-12T19:43:33.644Z,6.30
2019-04-12T19:46:03.170Z,6.30
2019-04-12T19:48:32.678Z,6.20
2019-04-12T19:51:03.367Z,6.10
2019-04-12T19:53:32.951Z,6.30
2019-04-12T19:56:03.632Z,6.30
2019-04-12T19:58:33.159Z,6.10
2019-04-12T20:01:03.927Z,6.10
2019-04-12T20:03:33.767Z,5.90
2019-04-12T20:06:03.268Z,5.90
2019-04-12T20:08:32.784Z,5.80
2019-04-12T20:11:04.381Z,5.70
2019-04-12T20:13:33.915Z,5.60
2019-04-12T20:16:03.332Z,5.40
2019-04-12T20:18:32.862Z,5.50
2019-04-12T20:21:02.280Z,5.40
2019-04-12T20:23:31.803Z,5.30
2019-04-12T20:26:01.286Z,5.50
2019-04-12T20:28:31.113Z,5.50
2019-04-12T20:31:00.598Z,5.40
2019-04-12T20:33:30.142Z,5.30
2019-04-12T20:36:00.910Z,5.30
2019-04-12T20:38:30.639Z,5.30
2019-04-12T20:41:00.232Z,5.30
2019-04-12T20:43:29.751Z,5.20
2019-04-12T20:45:59.250Z,5.10
2019-04-12T20:48:28.770Z,5.20
2019-04-12T20:50:59.457Z,5.20
2019-04-12T20:53:28.978Z,5.20
2019-04-12T20:55:58.402Z,5.30
2019-04-12T20:58:27.859Z,5.20
2019-04-12T21:00:57.349Z,5.20
2019-04-12T21:03:26.879Z,5.10
2019-04-12T21:05:57.476Z,5.20
2019-04-12T21:08:26.935Z,5.20
2019-04-12T21:10:57.628Z,5.00
2019-04-12T21:13:28.962Z,5.00
2019-04-12T21:15:59.385Z,5.00
2019-04-12T21:18:28.906Z,5.10
2019-04-12T21:20:58.330Z,5.00
2019-04-12T21:23:27.785Z,5.00
2019-04-12T21:25:57.278Z,5.10
2019-04-12T21:28:27.298Z,5.10
2019-04-12T21:30:56.806Z,5.10
2019-04-12T21:33:28.751Z,5.10
2019-04-12T21:35:58.642Z,5.10
2019-04-12T21:38:28.087Z,5.00
2019-04-12T21:40:57.570Z,5.00
2019-04-12T21:43:27.027Z,5.00
2019-04-12T21:45:56.439Z,5.00
2019-04-12T21:48:25.947Z,4.90
2019-04-12T21:50:55.364Z,4.90
2019-04-12T21:53:24.885Z,4.90
2019-04-12T21:55:55.583Z,4.80
2019-04-12T21:58:25.035Z,4.80
2019-04-12T22:00:56.741Z,4.90
2019-04-12T22:03:26.756Z,4.90
2019-04-12T22:05:56.242Z,4.90
2019-04-12T22:08:25.699Z,4.80
2019-04-12T22:10:56.388Z,4.80
2019-04-12T22:13:25.871Z,4.80
2019-04-12T22:15:55.389Z,4.70
2019-04-12T22:18:24.879Z,4.80
2019-04-12T22:20:54.419Z,4.80
2019-04-12T22:23:23.949Z,4.90
2019-04-12T22:25:53.583Z,4.80
2019-04-12T22:28:23.095Z,4.90
2019-04-12T22:30:54.178Z,4.90
2019-04-12T22:33:23.611Z,4.90
2019-04-12T22:35:54.434Z,4.80
2019-04-12T22:38:23.897Z,4.80
2019-04-12T22:40:54.703Z,4.60
2019-04-12T22:43:24.195Z,4.70
2019-04-12T22:45:55.192Z,4.60
2019-04-12T22:48:24.756Z,4.60
2019-04-12T22:50:54.355Z,4.60
2019-04-12T22:53:23.844Z,4.60
2019-04-12T22:55:53.364Z,4.60
2019-04-12T22:58:22.966Z,4.50
2019-04-12T23:00:53.906Z,4.60
2019-04-12T23:03:23.407Z,4.60
2019-04-12T23:05:52.932Z,4.70
2019-04-12T23:08:22.651Z,4.50
2019-04-12T23:10:53.347Z,4.50
2019-04-12T23:13:22.830Z,4.50
2019-04-12T23:15:53.742Z,4.50
2019-04-12T23:18:23.502Z,4.50
2019-04-12T23:20:54.231Z,4.40
2019-04-12T23:23:23.731Z,4.40
2019-04-12T23:25:53.343Z,4.40
2019-04-12T23:28:22.777Z,4.40
2019-04-12T23:30:53.986Z,4.40
2019-04-12T23:33:25.114Z,4.40
2019-04-12T23:35:55.964Z,4.40
2019-04-12T23:38:25.675Z,4.50
2019-04-12T23:40:56.506Z,4.50
2019-04-12T23:43:25.923Z,4.50
2019-04-12T23:45:55.516Z,4.50
2019-04-12T23:48:24.938Z,4.50
2019-04-12T23:50:55.776Z,4.50
2019-04-12T23:53:25.285Z,4.50
2019-04-12T23:55:54.866Z,4.40
2019-04-12T23:58:25.259Z,4.40
